sensor_id;sensor_type;location;lat;lon;timestamp;P1;durP1;ratioP1;P2;durP2;ratioP2
60464;SDS011;46314;52.392;9.758;2023-04-08T00:00:27;6.95;;;6.25;;
60464;SDS011;46314;52.392;9.758;2023-04-08T00:02:54;7.82;;;6.55;;
60464;SDS011;46314;52.392;9.758;2023-04-08T00:05:20;7.88;;;7.00;;
60464;SDS011;46314;52.392;9.758;2023-04-08T00:07:47;7.63;;;6.40;;
60464;SDS011;46314;52.392;9.758;2023-04-08T00:10:14;6.97;;;6.07;;
60464;SDS011;46314;52.392;9.758;2023-04-08T00:12:41;8.90;;;6.70;;
60464;SDS011;46314;52.392;9.758;2023-04-08T00:15:08;7.43;;;6.22;;
60464;SDS011;46314;52.392;9.758;2023-04-08T00:17:35;9.85;;;7.38;;
60464;SDS011;46314;52.392;9.758;2023-04-08T00:20:01;7.57;;;6.30;;
60464;SDS011;46314;52.392;9.758;2023-04-08T00:22:28;8.60;;;6.82;;
60464;SDS011;46314;52.392;9.758;2023-04-08T00:24:54;8.45;;;6.72;;
60464;SDS011;46314;52.392;9.758;2023-04-08T00:27:22;8.05;;;6.63;;
60464;SDS011;46314;52.392;9.758;2023-04-08T00:29:48;7.95;;;6.47;;
60464;SDS011;46314;52.392;9.758;2023-04-08T00:32:14;7.43;;;6.47;;
60464;SDS011;46314;52.392;9.758;2023-04-08T00:34:41;6.63;;;5.78;;
60464;SDS011;46314;52.392;9.758;2023-04-08T00:37:07;7.82;;;6.55;;
60464;SDS011;46314;52.392;9.758;2023-04-08T00:39:34;8.15;;;6.47;;
60464;SDS011;46314;52.392;9.758;2023-04-08T00:42:01;8.07;;;6.63;;
60464;SDS011;46314;52.392;9.758;2023-04-08T00:44:29;7.50;;;6.75;;
60464;SDS011;46314;52.392;9.758;2023-04-08T00:46:55;7.10;;;6.35;;
60464;SDS011;46314;52.392;9.758;2023-04-08T00:49:22;6.88;;;5.95;;
60464;SDS011;46314;52.392;9.758;2023-04-08T00:51:48;6.95;;;5.72;;
60464;SDS011;46314;52.392;9.758;2023-04-08T00:54:15;6.75;;;6.07;;
60464;SDS011;46314;52.392;9.758;2023-04-08T00:56:41;6.80;;;5.85;;
60464;SDS011;46314;52.392;9.758;2023-04-08T00:59:09;6.97;;;5.97;;
60464;SDS011;46314;52.392;9.758;2023-04-08T01:01:38;10.35;;;6.32;;
60464;SDS011;46314;52.392;9.758;2023-04-08T01:06:43;7.15;;;6.00;;
60464;SDS011;46314;52.392;9.758;2023-04-08T01:09:17;7.35;;;6.43;;
60464;SDS011;46314;52.392;9.758;2023-04-08T01:11:44;7.50;;;6.30;;
60464;SDS011;46314;52.392;9.758;2023-04-08T01:14:15;6.90;;;6.20;;
60464;SDS011;46314;52.392;9.758;2023-04-08T01:16:46;6.90;;;6.00;;
60464;SDS011;46314;52.392;9.758;2023-04-08T01:19:22;8.18;;;7.13;;
60464;SDS011;46314;52.392;9.758;2023-04-08T01:21:53;7.95;;;6.90;;
60464;SDS011;46314;52.392;9.758;2023-04-08T01:24:27;9.35;;;7.60;;
60464;SDS011;46314;52.392;9.758;2023-04-08T01:26:57;8.75;;;7.78;;
60464;SDS011;46314;52.392;9.758;2023-04-08T01:29:26;8.77;;;7.75;;
60464;SDS011;46314;52.392;9.758;2023-04-08T01:31:54;9.73;;;7.38;;
60464;SDS011;46314;52.392;9.758;2023-04-08T01:34:22;9.07;;;7.07;;
60464;SDS011;46314;52.392;9.758;2023-04-08T01:36:50;8.55;;;7.65;;
60464;SDS011;46314;52.392;9.758;2023-04-08T01:39:18;8.90;;;7.38;;
60464;SDS011;46314;52.392;9.758;2023-04-08T01:41:46;8.35;;;7.13;;
60464;SDS011;46314;52.392;9.758;2023-04-08T01:44:14;9.27;;;6.97;;
60464;SDS011;46314;52.392;9.758;2023-04-08T01:46:43;10.40;;;7.38;;
60464;SDS011;46314;52.392;9.758;2023-04-08T01:49:10;10.75;;;7.75;;
60464;SDS011;46314;52.392;9.758;2023-04-08T01:51:37;10.52;;;7.63;;
60464;SDS011;46314;52.392;9.758;2023-04-08T01:54:04;8.63;;;7.30;;
60464;SDS011;46314;52.392;9.758;2023-04-08T01:56:31;10.25;;;7.88;;
60464;SDS011;46314;52.392;9.758;2023-04-08T01:59:01;9.13;;;6.90;;
60464;SDS011;46314;52.392;9.758;2023-04-08T02:01:36;9.35;;;7.28;;
60464;SDS011;46314;52.392;9.758;2023-04-08T02:04:03;9.43;;;7.88;;
60464;SDS011;46314;52.392;9.758;2023-04-08T02:06:29;8.48;;;6.72;;
60464;SDS011;46314;52.392;9.758;2023-04-08T02:08:57;8.55;;;6.50;;
60464;SDS011;46314;52.392;9.758;2023-04-08T02:11:25;7.95;;;5.93;;
60464;SDS011;46314;52.392;9.758;2023-04-08T02:13:51;8.73;;;6.88;;
60464;SDS011;46314;52.392;9.758;2023-04-08T02:16:20;8.63;;;7.05;;
60464;SDS011;46314;52.392;9.758;2023-04-08T02:18:53;7.22;;;6.28;;
60464;SDS011;46314;52.392;9.758;2023-04-08T02:21:21;7.80;;;6.50;;
60464;SDS011;46314;52.392;9.758;2023-04-08T02:23:53;7.10;;;6.18;;
60464;SDS011;46314;52.392;9.758;2023-04-08T02:26:20;11.00;;;7.72;;
60464;SDS011;46314;52.392;9.758;2023-04-08T02:28:48;7.45;;;6.40;;
60464;SDS011;46314;52.392;9.758;2023-04-08T02:31:16;7.85;;;6.93;;
60464;SDS011;46314;52.392;9.758;2023-04-08T02:33:44;9.15;;;7.30;;
60464;SDS011;46314;52.392;9.758;2023-04-08T02:36:13;8.68;;;7.00;;
60464;SDS011;46314;52.392;9.758;2023-04-08T02:38:40;9.75;;;6.75;;
60464;SDS011;46314;52.392;9.758;2023-04-08T02:41:07;8.05;;;6.72;;
60464;SDS011;46314;52.392;9.758;2023-04-08T02:43:33;8.73;;;6.85;;
60464;SDS011;46314;52.392;9.758;2023-04-08T02:46:00;8.20;;;6.68;;
60464;SDS011;46314;52.392;9.758;2023-04-08T02:48:27;10.25;;;7.07;;
60464;SDS011;46314;52.392;9.758;2023-04-08T02:50:53;8.60;;;6.85;;
60464;SDS011;46314;52.392;9.758;2023-04-08T02:53:22;7.22;;;6.32;;
60464;SDS011;46314;52.392;9.758;2023-04-08T02:55:48;7.70;;;6.90;;
60464;SDS011;46314;52.392;9.758;2023-04-08T02:58:15;9.52;;;7.30;;
60464;SDS011;46314;52.392;9.758;2023-04-08T03:00:41;9.85;;;7.45;;
60464;SDS011;46314;52.392;9.758;2023-04-08T03:03:08;8.73;;;7.68;;
60464;SDS011;46314;52.392;9.758;2023-04-08T03:05:34;9.57;;;7.68;;
60464;SDS011;46314;52.392;9.758;2023-04-08T03:08:00;9.23;;;7.50;;
60464;SDS011;46314;52.392;9.758;2023-04-08T03:10:29;10.05;;;8.13;;
60464;SDS011;46314;52.392;9.758;2023-04-08T03:12:55;9.55;;;7.30;;
60464;SDS011;46314;52.392;9.758;2023-04-08T03:15:22;10.57;;;8.93;;
60464;SDS011;46314;52.392;9.758;2023-04-08T03:17:49;10.68;;;7.35;;
60464;SDS011;46314;52.392;9.758;2023-04-08T03:20:15;10.25;;;7.20;;
60464;SDS011;46314;52.392;9.758;2023-04-08T03:22:41;10.00;;;7.20;;
60464;SDS011;46314;52.392;9.758;2023-04-08T03:25:08;9.27;;;7.28;;
60464;SDS011;46314;52.392;9.758;2023-04-08T03:27:36;8.85;;;7.65;;
60464;SDS011;46314;52.392;9.758;2023-04-08T03:30:02;10.73;;;7.82;;
60464;SDS011;46314;52.392;9.758;2023-04-08T03:32:30;12.18;;;7.80;;
60464;SDS011;46314;52.392;9.758;2023-04-08T03:34:56;10.18;;;7.82;;
60464;SDS011;46314;52.392;9.758;2023-04-08T03:37:22;11.15;;;8.60;;
60464;SDS011;46314;52.392;9.758;2023-04-08T03:39:49;10.95;;;8.18;;
60464;SDS011;46314;52.392;9.758;2023-04-08T03:42:15;10.45;;;8.48;;
60464;SDS011;46314;52.392;9.758;2023-04-08T03:44:43;10.05;;;7.65;;
60464;SDS011;46314;52.392;9.758;2023-04-08T03:47:10;9.82;;;7.93;;
60464;SDS011;46314;52.392;9.758;2023-04-08T03:49:36;14.07;;;8.98;;
60464;SDS011;46314;52.392;9.758;2023-04-08T03:52:03;12.23;;;9.40;;
60464;SDS011;46314;52.392;9.758;2023-04-08T03:54:29;12.68;;;9.10;;
60464;SDS011;46314;52.392;9.758;2023-04-08T03:56:56;11.18;;;9.15;;
60464;SDS011;46314;52.392;9.758;2023-04-08T03:59:22;11.40;;;9.55;;
60464;SDS011;46314;52.392;9.758;2023-04-08T04:01:50;12.20;;;9.27;;
60464;SDS011;46314;52.392;9.758;2023-04-08T04:04:16;12.65;;;9.77;;
60464;SDS011;46314;52.392;9.758;2023-04-08T04:06:43;15.80;;;10.55;;
60464;SDS011;46314;52.392;9.758;2023-04-08T04:09:09;13.48;;;11.35;;
60464;SDS011;46314;52.392;9.758;2023-04-08T04:11:36;12.30;;;10.82;;
60464;SDS011;46314;52.392;9.758;2023-04-08T04:14:02;16.90;;;11.07;;
60464;SDS011;46314;52.392;9.758;2023-04-08T04:16:29;16.92;;;11.80;;
60464;SDS011;46314;52.392;9.758;2023-04-08T04:18:59;16.40;;;12.50;;
60464;SDS011;46314;52.392;9.758;2023-04-08T04:21:26;13.07;;;11.00;;
60464;SDS011;46314;52.392;9.758;2023-04-08T04:23:52;17.55;;;12.77;;
60464;SDS011;46314;52.392;9.758;2023-04-08T04:26:19;18.48;;;13.65;;
60464;SDS011;46314;52.392;9.758;2023-04-08T04:28:45;18.85;;;12.90;;
60464;SDS011;46314;52.392;9.758;2023-04-08T04:31:16;18.25;;;12.70;;
60464;SDS011;46314;52.392;9.758;2023-04-08T04:33:43;17.30;;;12.23;;
60464;SDS011;46314;52.392;9.758;2023-04-08T04:36:11;18.05;;;12.82;;
60464;SDS011;46314;52.392;9.758;2023-04-08T04:38:37;19.35;;;12.23;;
60464;SDS011;46314;52.392;9.758;2023-04-08T04:41:04;18.08;;;13.43;;
60464;SDS011;46314;52.392;9.758;2023-04-08T04:43:30;17.63;;;13.75;;
60464;SDS011;46314;52.392;9.758;2023-04-08T04:45:57;19.77;;;14.05;;
60464;SDS011;46314;52.392;9.758;2023-04-08T04:48:23;18.10;;;13.93;;
60464;SDS011;46314;52.392;9.758;2023-04-08T04:50:53;20.33;;;14.40;;
60464;SDS011;46314;52.392;9.758;2023-04-08T04:53:21;19.35;;;14.20;;
60464;SDS011;46314;52.392;9.758;2023-04-08T04:55:48;21.80;;;14.27;;
60464;SDS011;46314;52.392;9.758;2023-04-08T04:58:15;18.25;;;14.13;;
60464;SDS011;46314;52.392;9.758;2023-04-08T05:00:41;20.90;;;14.65;;
60464;SDS011;46314;52.392;9.758;2023-04-08T05:03:07;20.48;;;15.07;;
60464;SDS011;46314;52.392;9.758;2023-04-08T05:05:34;23.77;;;14.52;;
60464;SDS011;46314;52.392;9.758;2023-04-08T05:08:00;22.70;;;14.82;;
60464;SDS011;46314;52.392;9.758;2023-04-08T05:10:28;20.42;;;14.73;;
60464;SDS011;46314;52.392;9.758;2023-04-08T05:12:54;21.23;;;15.60;;
60464;SDS011;46314;52.392;9.758;2023-04-08T05:15:21;22.60;;;14.90;;
60464;SDS011;46314;52.392;9.758;2023-04-08T05:17:47;21.27;;;15.27;;
60464;SDS011;46314;52.392;9.758;2023-04-08T05:20:14;21.83;;;14.90;;
60464;SDS011;46314;52.392;9.758;2023-04-08T05:22:42;21.70;;;15.60;;
60464;SDS011;46314;52.392;9.758;2023-04-08T05:25:09;25.70;;;17.70;;
60464;SDS011;46314;52.392;9.758;2023-04-08T05:27:37;19.67;;;14.63;;
60464;SDS011;46314;52.392;9.758;2023-04-08T05:30:04;20.65;;;15.02;;
60464;SDS011;46314;52.392;9.758;2023-04-08T05:32:31;22.23;;;15.65;;
60464;SDS011;46314;52.392;9.758;2023-04-08T05:35:00;20.38;;;15.02;;
60464;SDS011;46314;52.392;9.758;2023-04-08T05:37:27;22.20;;;14.88;;
60464;SDS011;46314;52.392;9.758;2023-04-08T05:39:53;22.65;;;14.98;;
60464;SDS011;46314;52.392;9.758;2023-04-08T05:42:20;23.50;;;15.18;;
60464;SDS011;46314;52.392;9.758;2023-04-08T05:44:48;23.70;;;14.07;;
60464;SDS011;46314;52.392;9.758;2023-04-08T05:47:14;20.83;;;15.38;;
60464;SDS011;46314;52.392;9.758;2023-04-08T05:49:40;22.48;;;14.82;;
60464;SDS011;46314;52.392;9.758;2023-04-08T05:52:07;22.45;;;15.38;;
60464;SDS011;46314;52.392;9.758;2023-04-08T05:54:33;22.65;;;14.88;;
60464;SDS011;46314;52.392;9.758;2023-04-08T05:57:00;22.17;;;15.38;;
60464;SDS011;46314;52.392;9.758;2023-04-08T05:59:26;25.67;;;16.67;;
60464;SDS011;46314;52.392;9.758;2023-04-08T06:01:54;20.83;;;14.55;;
60464;SDS011;46314;52.392;9.758;2023-04-08T06:04:20;20.63;;;15.23;;
60464;SDS011;46314;52.392;9.758;2023-04-08T06:06:47;21.73;;;14.45;;
60464;SDS011;46314;52.392;9.758;2023-04-08T06:09:13;20.13;;;15.45;;
60464;SDS011;46314;52.392;9.758;2023-04-08T06:11:41;25.50;;;16.70;;
60464;SDS011;46314;52.392;9.758;2023-04-08T06:14:07;25.33;;;14.80;;
60464;SDS011;46314;52.392;9.758;2023-04-08T06:16:33;23.38;;;15.48;;
60464;SDS011;46314;52.392;9.758;2023-04-08T06:19:01;24.48;;;16.90;;
60464;SDS011;46314;52.392;9.758;2023-04-08T06:21:28;22.83;;;16.00;;
60464;SDS011;46314;52.392;9.758;2023-04-08T06:23:54;31.08;;;15.68;;
60464;SDS011;46314;52.392;9.758;2023-04-08T06:26:20;26.45;;;17.45;;
60464;SDS011;46314;52.392;9.758;2023-04-08T06:28:47;19.58;;;15.25;;
60464;SDS011;46314;52.392;9.758;2023-04-08T06:31:14;23.35;;;16.42;;
60464;SDS011;46314;52.392;9.758;2023-04-08T06:33:40;21.02;;;15.98;;
60464;SDS011;46314;52.392;9.758;2023-04-08T06:36:08;20.73;;;15.18;;
60464;SDS011;46314;52.392;9.758;2023-04-08T06:38:34;21.80;;;14.73;;
60464;SDS011;46314;52.392;9.758;2023-04-08T06:41:01;22.83;;;15.00;;
60464;SDS011;46314;52.392;9.758;2023-04-08T06:43:28;19.35;;;14.80;;
60464;SDS011;46314;52.392;9.758;2023-04-08T06:45:54;21.63;;;15.23;;
60464;SDS011;46314;52.392;9.758;2023-04-08T06:48:21;19.02;;;14.70;;
60464;SDS011;46314;52.392;9.758;2023-04-08T06:50:47;25.45;;;15.65;;
60464;SDS011;46314;52.392;9.758;2023-04-08T06:53:15;22.83;;;16.42;;
60464;SDS011;46314;52.392;9.758;2023-04-08T06:55:41;21.60;;;15.60;;
60464;SDS011;46314;52.392;9.758;2023-04-08T06:58:08;22.75;;;15.77;;
60464;SDS011;46314;52.392;9.758;2023-04-08T07:00:34;20.77;;;16.13;;
60464;SDS011;46314;52.392;9.758;2023-04-08T07:03:00;23.80;;;16.45;;
60464;SDS011;46314;52.392;9.758;2023-04-08T07:05:27;21.77;;;16.30;;
60464;SDS011;46314;52.392;9.758;2023-04-08T07:07:53;20.23;;;15.07;;
60464;SDS011;46314;52.392;9.758;2023-04-08T07:10:21;23.15;;;15.18;;
60464;SDS011;46314;52.392;9.758;2023-04-08T07:12:48;22.00;;;15.20;;
60464;SDS011;46314;52.392;9.758;2023-04-08T07:15:14;21.83;;;15.57;;
60464;SDS011;46314;52.392;9.758;2023-04-08T07:17:40;22.58;;;15.43;;
60464;SDS011;46314;52.392;9.758;2023-04-08T07:20:07;31.63;;;16.20;;
60464;SDS011;46314;52.392;9.758;2023-04-08T07:22:34;20.73;;;15.90;;
60464;SDS011;46314;52.392;9.758;2023-04-08T07:25:00;19.15;;;13.85;;
60464;SDS011;46314;52.392;9.758;2023-04-08T07:27:28;17.90;;;14.23;;
60464;SDS011;46314;52.392;9.758;2023-04-08T07:29:55;20.13;;;14.25;;
60464;SDS011;46314;52.392;9.758;2023-04-08T07:32:21;20.25;;;14.07;;
60464;SDS011;46314;52.392;9.758;2023-04-08T07:34:47;20.58;;;15.38;;
60464;SDS011;46314;52.392;9.758;2023-04-08T07:37:14;16.90;;;12.05;;
60464;SDS011;46314;52.392;9.758;2023-04-08T07:39:40;15.35;;;12.90;;
60464;SDS011;46314;52.392;9.758;2023-04-08T07:42:07;19.88;;;13.73;;
60464;SDS011;46314;52.392;9.758;2023-04-08T07:44:35;20.05;;;14.32;;
60464;SDS011;46314;52.392;9.758;2023-04-08T07:47:01;20.05;;;14.43;;
60464;SDS011;46314;52.392;9.758;2023-04-08T07:49:27;19.80;;;14.57;;
60464;SDS011;46314;52.392;9.758;2023-04-08T07:51:54;19.27;;;14.60;;
60464;SDS011;46314;52.392;9.758;2023-04-08T07:54:20;17.83;;;14.85;;
60464;SDS011;46314;52.392;9.758;2023-04-08T07:56:46;19.98;;;15.48;;
60464;SDS011;46314;52.392;9.758;2023-04-08T07:59:13;21.50;;;15.07;;
60464;SDS011;46314;52.392;9.758;2023-04-08T08:01:41;20.30;;;14.43;;
60464;SDS011;46314;52.392;9.758;2023-04-08T08:04:07;17.20;;;14.35;;
60464;SDS011;46314;52.392;9.758;2023-04-08T08:06:34;21.92;;;14.93;;
60464;SDS011;46314;52.392;9.758;2023-04-08T08:09:00;19.90;;;14.95;;
60464;SDS011;46314;52.392;9.758;2023-04-08T08:11:27;18.42;;;14.38;;
60464;SDS011;46314;52.392;9.758;2023-04-08T08:13:53;19.20;;;15.60;;
60464;SDS011;46314;52.392;9.758;2023-04-08T08:16:20;20.45;;;16.35;;
60464;SDS011;46314;52.392;9.758;2023-04-08T08:18:48;21.58;;;14.98;;
60464;SDS011;46314;52.392;9.758;2023-04-08T08:21:14;19.48;;;16.58;;
60464;SDS011;46314;52.392;9.758;2023-04-08T08:23:40;19.80;;;15.35;;
60464;SDS011;46314;52.392;9.758;2023-04-08T08:26:07;21.92;;;15.63;;
60464;SDS011;46314;52.392;9.758;2023-04-08T08:28:35;19.58;;;15.20;;
60464;SDS011;46314;52.392;9.758;2023-04-08T08:31:02;21.95;;;16.33;;
60464;SDS011;46314;52.392;9.758;2023-04-08T08:33:28;21.40;;;15.27;;
60464;SDS011;46314;52.392;9.758;2023-04-08T08:35:56;22.98;;;17.10;;
60464;SDS011;46314;52.392;9.758;2023-04-08T08:38:23;22.75;;;17.67;;
60464;SDS011;46314;52.392;9.758;2023-04-08T08:40:52;21.02;;;15.43;;
60464;SDS011;46314;52.392;9.758;2023-04-08T08:43:20;22.02;;;15.48;;
60464;SDS011;46314;52.392;9.758;2023-04-08T08:45:46;20.17;;;16.08;;
60464;SDS011;46314;52.392;9.758;2023-04-08T08:48:13;20.50;;;15.27;;
60464;SDS011;46314;52.392;9.758;2023-04-08T08:50:39;19.75;;;15.48;;
60464;SDS011;46314;52.392;9.758;2023-04-08T08:53:07;23.65;;;16.30;;
60464;SDS011;46314;52.392;9.758;2023-04-08T08:55:33;22.45;;;16.98;;
60464;SDS011;46314;52.392;9.758;2023-04-08T08:58:20;24.90;;;18.65;;
60464;SDS011;46314;52.392;9.758;2023-04-08T09:00:46;22.60;;;16.92;;
60464;SDS011;46314;52.392;9.758;2023-04-08T09:03:14;22.30;;;16.52;;
60464;SDS011;46314;52.392;9.758;2023-04-08T09:05:48;22.63;;;16.13;;
60464;SDS011;46314;52.392;9.758;2023-04-08T09:08:26;22.58;;;16.00;;
60464;SDS011;46314;52.392;9.758;2023-04-08T09:10:55;23.45;;;17.02;;
60464;SDS011;46314;52.392;9.758;2023-04-08T09:13:36;28.15;;;17.15;;
60464;SDS011;46314;52.392;9.758;2023-04-08T09:16:03;22.13;;;16.13;;
60464;SDS011;46314;52.392;9.758;2023-04-08T09:18:31;22.25;;;16.63;;
60464;SDS011;46314;52.392;9.758;2023-04-08T09:20:58;21.27;;;16.92;;
60464;SDS011;46314;52.392;9.758;2023-04-08T09:23:37;24.00;;;16.90;;
60464;SDS011;46314;52.392;9.758;2023-04-08T09:26:07;23.70;;;17.25;;
60464;SDS011;46314;52.392;9.758;2023-04-08T09:28:34;21.05;;;15.98;;
60464;SDS011;46314;52.392;9.758;2023-04-08T09:31:05;22.33;;;16.65;;
60464;SDS011;46314;52.392;9.758;2023-04-08T09:33:43;26.67;;;17.35;;
60464;SDS011;46314;52.392;9.758;2023-04-08T09:36:09;24.92;;;17.42;;
60464;SDS011;46314;52.392;9.758;2023-04-08T09:38:37;26.40;;;17.35;;
60464;SDS011;46314;52.392;9.758;2023-04-08T09:41:04;25.40;;;17.65;;
60464;SDS011;46314;52.392;9.758;2023-04-08T09:43:32;24.95;;;17.77;;
60464;SDS011;46314;52.392;9.758;2023-04-08T09:46:07;24.23;;;18.77;;
60464;SDS011;46314;52.392;9.758;2023-04-08T09:48:38;27.83;;;18.05;;
60464;SDS011;46314;52.392;9.758;2023-04-08T09:51:10;26.33;;;17.08;;
60464;SDS011;46314;52.392;9.758;2023-04-08T09:53:41;22.92;;;16.60;;
60464;SDS011;46314;52.392;9.758;2023-04-08T09:56:12;25.55;;;16.98;;
60464;SDS011;46314;52.392;9.758;2023-04-08T09:58:41;24.73;;;17.52;;
60464;SDS011;46314;52.392;9.758;2023-04-08T10:01:14;22.45;;;17.02;;
60464;SDS011;46314;52.392;9.758;2023-04-08T10:03:44;25.13;;;17.40;;
60464;SDS011;46314;52.392;9.758;2023-04-08T10:06:15;25.77;;;17.65;;
60464;SDS011;46314;52.392;9.758;2023-04-08T10:08:43;19.92;;;15.68;;
60464;SDS011;46314;52.392;9.758;2023-04-08T10:11:10;22.92;;;17.42;;
60464;SDS011;46314;52.392;9.758;2023-04-08T10:13:37;24.25;;;16.90;;
60464;SDS011;46314;52.392;9.758;2023-04-08T10:16:16;24.58;;;17.00;;
60464;SDS011;46314;52.392;9.758;2023-04-08T10:18:44;22.70;;;16.55;;
60464;SDS011;46314;52.392;9.758;2023-04-08T10:24:04;24.10;;;17.08;;
60464;SDS011;46314;52.392;9.758;2023-04-08T10:26:33;25.38;;;17.02;;
60464;SDS011;46314;52.392;9.758;2023-04-08T10:32:07;24.00;;;17.67;;
60464;SDS011;46314;52.392;9.758;2023-04-08T10:34:33;24.02;;;17.90;;
60464;SDS011;46314;52.392;9.758;2023-04-08T10:37:00;19.77;;;15.77;;
60464;SDS011;46314;52.392;9.758;2023-04-08T10:39:27;21.10;;;16.58;;
60464;SDS011;46314;52.392;9.758;2023-04-08T10:41:55;23.17;;;16.73;;
60464;SDS011;46314;52.392;9.758;2023-04-08T10:44:22;22.63;;;16.80;;
60464;SDS011;46314;52.392;9.758;2023-04-08T10:46:50;20.63;;;16.42;;
60464;SDS011;46314;52.392;9.758;2023-04-08T10:49:17;19.58;;;16.27;;
60464;SDS011;46314;52.392;9.758;2023-04-08T10:51:44;20.92;;;16.27;;
60464;SDS011;46314;52.392;9.758;2023-04-08T10:54:12;23.67;;;16.27;;
60464;SDS011;46314;52.392;9.758;2023-04-08T10:56:44;21.23;;;16.48;;
60464;SDS011;46314;52.392;9.758;2023-04-08T10:59:14;22.73;;;17.77;;
60464;SDS011;46314;52.392;9.758;2023-04-08T11:01:42;22.80;;;17.15;;
60464;SDS011;46314;52.392;9.758;2023-04-08T11:04:10;20.73;;;15.25;;
60464;SDS011;46314;52.392;9.758;2023-04-08T11:06:37;21.17;;;15.77;;
60464;SDS011;46314;52.392;9.758;2023-04-08T11:09:04;21.00;;;16.25;;
60464;SDS011;46314;52.392;9.758;2023-04-08T11:11:31;21.20;;;16.38;;
60464;SDS011;46314;52.392;9.758;2023-04-08T11:13:59;22.33;;;17.15;;
60464;SDS011;46314;52.392;9.758;2023-04-08T11:16:26;22.05;;;16.40;;
60464;SDS011;46314;52.392;9.758;2023-04-08T11:18:53;23.33;;;17.02;;
60464;SDS011;46314;52.392;9.758;2023-04-08T11:21:19;21.25;;;17.73;;
60464;SDS011;46314;52.392;9.758;2023-04-08T11:23:48;19.25;;;15.43;;
60464;SDS011;46314;52.392;9.758;2023-04-08T11:26:15;22.33;;;16.45;;
60464;SDS011;46314;52.392;9.758;2023-04-08T11:28:42;23.35;;;17.20;;
60464;SDS011;46314;52.392;9.758;2023-04-08T11:31:10;22.02;;;16.70;;
60464;SDS011;46314;52.392;9.758;2023-04-08T11:33:42;23.65;;;17.45;;
60464;SDS011;46314;52.392;9.758;2023-04-08T11:36:10;24.75;;;17.38;;
60464;SDS011;46314;52.392;9.758;2023-04-08T11:38:37;21.98;;;16.80;;
60464;SDS011;46314;52.392;9.758;2023-04-08T11:41:04;23.83;;;16.95;;
60464;SDS011;46314;52.392;9.758;2023-04-08T11:43:31;19.15;;;16.27;;
60464;SDS011;46314;52.392;9.758;2023-04-08T11:45:57;21.35;;;15.75;;
60464;SDS011;46314;52.392;9.758;2023-04-08T11:48:25;21.90;;;16.77;;
60464;SDS011;46314;52.392;9.758;2023-04-08T11:51:01;22.63;;;16.00;;
60464;SDS011;46314;52.392;9.758;2023-04-08T11:53:28;21.88;;;17.10;;
60464;SDS011;46314;52.392;9.758;2023-04-08T11:55:54;20.60;;;17.10;;
60464;SDS011;46314;52.392;9.758;2023-04-08T11:58:21;22.48;;;16.63;;
60464;SDS011;46314;52.392;9.758;2023-04-08T12:00:47;22.05;;;15.77;;
60464;SDS011;46314;52.392;9.758;2023-04-08T12:03:13;22.55;;;17.08;;
60464;SDS011;46314;52.392;9.758;2023-04-08T12:05:41;21.30;;;16.40;;
60464;SDS011;46314;52.392;9.758;2023-04-08T12:08:08;20.85;;;15.60;;
60464;SDS011;46314;52.392;9.758;2023-04-08T12:10:34;20.02;;;15.90;;
60464;SDS011;46314;52.392;9.758;2023-04-08T12:13:00;21.70;;;16.02;;
60464;SDS011;46314;52.392;9.758;2023-04-08T12:15:27;20.27;;;16.40;;
60464;SDS011;46314;52.392;9.758;2023-04-08T12:17:54;21.73;;;16.60;;
60464;SDS011;46314;52.392;9.758;2023-04-08T12:20:20;19.20;;;15.27;;
60464;SDS011;46314;52.392;9.758;2023-04-08T12:22:48;23.92;;;18.00;;
60464;SDS011;46314;52.392;9.758;2023-04-08T12:25:14;21.85;;;16.23;;
60464;SDS011;46314;52.392;9.758;2023-04-08T12:27:41;22.48;;;16.80;;
60464;SDS011;46314;52.392;9.758;2023-04-08T12:30:07;22.15;;;16.42;;
60464;SDS011;46314;52.392;9.758;2023-04-08T12:32:35;21.00;;;16.00;;
60464;SDS011;46314;52.392;9.758;2023-04-08T12:35:01;21.70;;;17.27;;
60464;SDS011;46314;52.392;9.758;2023-04-08T12:37:29;22.98;;;16.95;;
60464;SDS011;46314;52.392;9.758;2023-04-08T12:39:57;21.60;;;16.92;;
60464;SDS011;46314;52.392;9.758;2023-04-08T12:42:23;20.52;;;16.58;;
60464;SDS011;46314;52.392;9.758;2023-04-08T12:44:50;21.48;;;16.60;;
60464;SDS011;46314;52.392;9.758;2023-04-08T12:47:16;20.33;;;15.88;;
60464;SDS011;46314;52.392;9.758;2023-04-08T12:49:43;21.15;;;17.50;;
60464;SDS011;46314;52.392;9.758;2023-04-08T12:52:15;21.65;;;16.10;;
60464;SDS011;46314;52.392;9.758;2023-04-08T12:54:41;20.58;;;15.63;;
60464;SDS011;46314;52.392;9.758;2023-04-08T12:57:09;23.92;;;18.30;;
60464;SDS011;46314;52.392;9.758;2023-04-08T12:59:35;21.25;;;16.00;;
60464;SDS011;46314;52.392;9.758;2023-04-08T13:02:02;21.75;;;16.50;;
60464;SDS011;46314;52.392;9.758;2023-04-08T13:04:28;22.98;;;16.20;;
60464;SDS011;46314;52.392;9.758;2023-04-08T13:06:55;22.23;;;16.02;;
60464;SDS011;46314;52.392;9.758;2023-04-08T13:09:21;21.58;;;16.13;;
60464;SDS011;46314;52.392;9.758;2023-04-08T13:11:48;22.13;;;16.45;;
60464;SDS011;46314;52.392;9.758;2023-04-08T13:14:16;21.10;;;15.48;;
60464;SDS011;46314;52.392;9.758;2023-04-08T13:16:42;23.58;;;16.88;;
60464;SDS011;46314;52.392;9.758;2023-04-08T13:19:09;22.88;;;16.02;;
60464;SDS011;46314;52.392;9.758;2023-04-08T13:21:35;21.48;;;15.75;;
60464;SDS011;46314;52.392;9.758;2023-04-08T13:24:01;21.70;;;16.75;;
60464;SDS011;46314;52.392;9.758;2023-04-08T13:26:28;20.48;;;16.52;;
60464;SDS011;46314;52.392;9.758;2023-04-08T13:28:54;20.15;;;16.30;;
60464;SDS011;46314;52.392;9.758;2023-04-08T13:31:24;23.30;;;16.80;;
60464;SDS011;46314;52.392;9.758;2023-04-08T13:33:51;18.98;;;15.85;;
60464;SDS011;46314;52.392;9.758;2023-04-08T13:36:21;20.42;;;14.50;;
60464;SDS011;46314;52.392;9.758;2023-04-08T13:38:47;21.90;;;14.63;;
60464;SDS011;46314;52.392;9.758;2023-04-08T13:41:14;22.92;;;16.52;;
60464;SDS011;46314;52.392;9.758;2023-04-08T13:43:40;18.40;;;15.15;;
60464;SDS011;46314;52.392;9.758;2023-04-08T13:46:07;20.90;;;15.95;;
60464;SDS011;46314;52.392;9.758;2023-04-08T13:48:34;21.88;;;16.13;;
60464;SDS011;46314;52.392;9.758;2023-04-08T13:51:01;20.98;;;16.08;;
60464;SDS011;46314;52.392;9.758;2023-04-08T13:53:27;18.25;;;16.23;;
60464;SDS011;46314;52.392;9.758;2023-04-08T13:55:54;18.95;;;15.55;;
60464;SDS011;46314;52.392;9.758;2023-04-08T13:58:20;19.48;;;14.85;;
60464;SDS011;46314;52.392;9.758;2023-04-08T14:00:49;21.52;;;15.80;;
60464;SDS011;46314;52.392;9.758;2023-04-08T14:03:16;20.35;;;15.10;;
60464;SDS011;46314;52.392;9.758;2023-04-08T14:05:44;19.25;;;15.48;;
60464;SDS011;46314;52.392;9.758;2023-04-08T14:08:10;19.33;;;15.70;;
60464;SDS011;46314;52.392;9.758;2023-04-08T14:10:36;19.83;;;14.95;;
60464;SDS011;46314;52.392;9.758;2023-04-08T14:13:03;20.77;;;16.48;;
60464;SDS011;46314;52.392;9.758;2023-04-08T14:15:29;19.48;;;15.82;;
60464;SDS011;46314;52.392;9.758;2023-04-08T14:17:56;17.85;;;14.23;;
60464;SDS011;46314;52.392;9.758;2023-04-08T14:20:22;18.73;;;15.23;;
60464;SDS011;46314;52.392;9.758;2023-04-08T14:22:50;20.75;;;15.95;;
60464;SDS011;46314;52.392;9.758;2023-04-08T14:25:16;18.70;;;14.43;;
60464;SDS011;46314;52.392;9.758;2023-04-08T14:27:43;20.30;;;14.75;;
60464;SDS011;46314;52.392;9.758;2023-04-08T14:30:23;19.80;;;15.35;;
60464;SDS011;46314;52.392;9.758;2023-04-08T14:32:49;19.35;;;15.63;;
60464;SDS011;46314;52.392;9.758;2023-04-08T14:35:16;20.48;;;15.75;;
60464;SDS011;46314;52.392;9.758;2023-04-08T14:37:42;17.58;;;14.10;;